TAF and METAR

METAR for Soummam Airport

DAAE 011600Z 13006KT 9999 FEW016 SCT090 18/15 Q1011
Report created 1. apr 18:00
wind 6 knots from SE (130°) visibility > 10km some clouds (~25% cover) at 1600 feet scattered clouds (~50% cover) at 9000 feet Temperature 18° with dewpoint at 15° (Humidity 82.65%) Pressure 1011 hPa

TAF for Soummam Airport

TAF DAAE 011100Z 0112/0212 30012KT 9999 FEW023 SCT033 TEMPO 0112/0124 30015G25KT FEW026TCU PROB40 TEMPO 0118/0124 5000 -TSRA FEW023CB BKN030
Report created 1. apr 13:00

between 1. apr 14:00 - 2. apr 14:00

wind 12 knots from WNW (300°) visibility > 10km some clouds (~25% cover) at 2300 feet scattered clouds (~50% cover) at 3300 feet

temporarily between 1. apr 14:00 - 1. apr 02:00

wind 15 knots from WNW (300°) with gusts up to 25 knots some clouds (~25% cover) at 2600 feet of type towering cumulus

probably (~40%) temporarily between 1. apr 20:00 - 1. apr 02:00

visibility 5000 meters light thunderstorm and rain some clouds (~25% cover) at 2300 feet of type cumulonimbus broken clouds (~75% cover) at 3000 feet
Soummam Airport in Algeria at 2m

Latest 5 airports